Time;durP1;ratioP1;P1;durP2;ratioP2;P2;SDS_P1;SDS_P2;PMS_P1;PMS_P2;Temp;Humidity;BMP_temperature;BMP_pressure;BME280_temperature;BME280_humidity;BME280_pressure;Samples;Min_cycle;Max_cycle;Signal;HPM_P1;HPM_P2
2021/01/21 00:00:45;;;;;;;25.10;2.75;;;24.60;29.40;;;;;;5000502;28;20019;-76
2021/01/21 00:03:11;;;;;;;22.90;3.35;;;24.80;29.20;;;;;;5007893;28;20026;-78
2021/01/21 00:05:38;;;;;;;23.85;2.50;;;24.70;29.30;;;;;;5012420;28;20030;-78
2021/01/21 00:08:05;;;;;;;17.17;2.85;;;24.80;29.30;;;;;;5011916;28;20026;-78
2021/01/21 00:10:32;;;;;;;15.70;2.58;;;24.50;29.40;;;;;;5012239;28;20400;-78
2021/01/21 00:13:02;;;;;;;22.63;2.33;;;24.10;29.60;;;;;;5011548;28;20034;-79
2021/01/21 00:15:29;;;;;;;21.20;1.95;;;24.00;29.20;;;;;;5012352;28;20030;-79
2021/01/21 00:17:56;;;;;;;23.75;2.83;;;23.90;29.50;;;;;;5011823;28;20386;-77
2021/01/21 00:20:23;;;;;;;14.75;2.28;;;23.40;29.80;;;;;;5012193;28;20033;-79
2021/01/21 00:22:50;;;;;;;21.90;2.63;;;22.90;30.20;;;;;;5011393;28;20026;-77
2021/01/21 00:25:16;;;;;;;25.17;2.25;;;22.50;30.90;;;;;;5011452;28;20026;-76
2021/01/21 00:27:43;;;;;;;21.50;2.58;;;21.80;31.10;;;;;;5011615;28;20387;-75
2021/01/21 00:30:11;;;;;;;22.77;2.40;;;21.30;31.20;;;;;;4992478;28;20044;-74
2021/01/21 00:32:38;;;;;;;25.52;2.55;;;20.40;32.00;;;;;;4992439;28;20026;-73
2021/01/21 00:35:08;;;;;;;18.77;2.60;;;20.00;32.10;;;;;;5009774;28;20032;-75
2021/01/21 00:37:35;;;;;;;15.23;2.60;;;19.70;32.70;;;;;;5011866;28;20034;-76
2021/01/21 00:40:03;;;;;;;27.08;2.45;;;19.40;32.00;;;;;;5011285;28;20037;-74
2021/01/21 00:42:30;;;;;;;20.33;2.65;;;19.10;32.60;;;;;;5010743;28;20037;-78
2021/01/21 00:44:57;;;;;;;22.60;2.53;;;18.80;32.60;;;;;;5011247;28;20072;-76
2021/01/21 00:47:26;;;;;;;18.90;1.67;;;18.40;30.20;;;;;;5011681;28;20478;-77
2021/01/21 00:49:53;;;;;;;11.77;1.58;;;18.20;29.20;;;;;;5011238;28;20495;-78
2021/01/21 00:52:20;;;;;;;15.55;1.90;;;18.00;30.00;;;;;;5011858;28;20038;-77
2021/01/21 00:54:47;;;;;;;14.85;1.42;;;17.80;29.50;;;;;;5011927;28;20026;-78
2021/01/21 00:57:14;;;;;;;10.00;1.15;;;17.60;29.30;;;;;;5012142;28;20025;-77
2021/01/21 00:59:41;;;;;;;16.20;1.13;;;17.40;29.10;;;;;;5011346;28;20479;-77
2021/01/21 01:02:08;;;;;;;15.60;1.55;;;17.20;29.60;;;;;;5011271;28;20030;-77
2021/01/21 01:04:35;;;;;;;17.98;1.60;;;17.00;29.70;;;;;;5011640;28;20026;-77
2021/01/21 01:07:03;;;;;;;18.13;1.20;;;16.80;29.90;;;;;;5011715;28;20382;-77
2021/01/21 01:09:30;;;;;;;9.63;1.20;;;16.60;30.00;;;;;;4993719;28;20085;-76
2021/01/21 01:11:57;;;;;;;20.52;2.95;;;16.40;29.80;;;;;;5011324;28;20026;-76
2021/01/21 01:14:26;;;;;;;21.30;1.65;;;16.10;30.40;;;;;;5011844;28;20041;-77
2021/01/21 01:16:53;;;;;;;14.60;2.47;;;15.80;30.50;;;;;;5011668;28;20034;-76
2021/01/21 01:19:20;;;;;;;18.88;1.30;;;15.70;31.80;;;;;;4994303;28;20049;-77
2021/01/21 01:21:47;;;;;;;12.15;1.50;;;15.60;31.50;;;;;;5015841;28;20037;-77
2021/01/21 01:24:14;;;;;;;12.85;1.20;;;15.60;32.10;;;;;;5014213;28;20045;-77
2021/01/21 01:26:41;;;;;;;23.63;2.20;;;15.40;31.20;;;;;;5015623;28;20026;-77
2021/01/21 01:29:08;;;;;;;19.42;1.20;;;15.20;31.50;;;;;;5015141;28;20085;-77
2021/01/21 01:31:35;;;;;;;12.73;1.25;;;15.10;31.70;;;;;;5014501;28;20053;-77
2021/01/21 01:34:01;;;;;;;21.55;1.77;;;14.80;31.30;;;;;;5014683;28;20022;-77
2021/01/21 01:36:28;;;;;;;15.48;1.55;;;14.70;31.70;;;;;;5014654;28;20041;-77
2021/01/21 01:38:55;;;;;;;12.93;1.30;;;14.60;31.80;;;;;;5014720;28;20025;-76
2021/01/21 01:41:26;;;;;;;12.77;1.65;;;14.50;31.80;;;;;;5014428;28;20042;-76
2021/01/21 01:43:52;;;;;;;13.20;1.40;;;14.30;32.00;;;;;;5014105;28;20052;-78
2021/01/21 01:46:20;;;;;;;15.00;1.40;;;14.10;32.30;;;;;;4996619;28;20045;-77
2021/01/21 01:48:47;;;;;;;10.55;1.45;;;14.10;32.30;;;;;;5014998;28;20033;-78
2021/01/21 01:51:14;;;;;;;11.45;1.65;;;14.20;32.50;;;;;;4997236;28;20053;-78
2021/01/21 01:53:40;;;;;;;13.48;1.40;;;14.20;32.40;;;;;;5017160;28;20026;-77
2021/01/21 01:56:07;;;;;;;14.93;1.70;;;14.20;32.30;;;;;;5013766;28;20050;-77
2021/01/21 01:58:34;;;;;;;16.92;1.60;;;14.10;32.20;;;;;;5015023;28;20025;-76
2021/01/21 02:01:02;;;;;;;13.95;1.20;;;14.00;32.50;;;;;;5014440;28;20379;-77
2021/01/21 02:03:29;;;;;;;13.98;2.25;;;14.00;32.70;;;;;;4977480;28;20474;-77
2021/01/21 02:05:56;;;;;;;16.50;1.35;;;14.00;32.60;;;;;;5012354;28;20084;-78
2021/01/21 02:08:25;;;;;;;17.08;1.30;;;14.00;32.90;;;;;;5015009;28;20516;-78
2021/01/21 02:10:58;;;;;;;15.73;1.58;;;14.00;32.60;;;;;;5014438;28;20046;-79
2021/01/21 02:13:46;;;;;;;18.73;1.27;;;14.00;32.60;;;;;;5014974;28;20386;-78
2021/01/21 02:16:52;;;;;;;16.33;1.45;;;14.00;32.50;;;;;;5014188;28;20033;-79
2021/01/21 02:19:56;;;;;;;14.05;2.13;;;14.00;32.70;;;;;;4997371;28;20041;-78
2021/01/21 02:22:48;;;;;;;19.80;2.35;;;14.00;32.70;;;;;;5014974;28;20030;-79
2021/01/21 02:25:21;;;;;;;11.27;1.00;;;14.00;32.70;;;;;;5014544;28;20390;-78
2021/01/21 02:28:13;;;;;;;17.50;1.40;;;14.10;32.50;;;;;;5014147;28;20022;-78
2021/01/21 02:30:55;;;;;;;26.67;1.92;;;14.10;32.80;;;;;;5012345;28;20030;-78
2021/01/21 02:33:47;;;;;;;15.80;2.13;;;14.10;33.70;;;;;;5013788;28;20049;-78
2021/01/21 02:36:20;;;;;;;11.57;1.33;;;14.00;33.20;;;;;;5000508;28;20034;-79
2021/01/21 02:38:49;;;;;;;11.05;1.35;;;14.00;33.60;;;;;;5008402;28;20038;-78
2021/01/21 02:41:19;;;;;;;14.27;1.33;;;13.90;33.40;;;;;;5008810;28;20030;-79
2021/01/21 02:43:55;;;;;;;16.67;1.40;;;13.90;34.00;;;;;;5013600;28;20034;-79
2021/01/21 02:46:23;;;;;;;17.35;1.60;;;13.80;34.20;;;;;;5012645;28;20038;-79
2021/01/21 02:48:54;;;;;;;9.73;1.30;;;13.70;34.20;;;;;;5013669;28;20034;-79
2021/01/21 02:51:59;;;;;;;20.23;2.33;;;13.60;34.60;;;;;;5013464;28;20038;-79
2021/01/21 02:54:45;;;;;;;25.48;1.80;;;13.50;35.00;;;;;;5004726;28;20434;-79
2021/01/21 02:57:20;;;;;;;19.00;3.28;;;13.40;35.10;;;;;;4993453;28;20042;-78
2021/01/21 02:59:49;;;;;;;19.00;2.00;;;13.30;35.10;;;;;;5008907;28;20041;-78
2021/01/21 03:02:22;;;;;;;19.88;2.10;;;13.20;35.50;;;;;;5011900;28;20041;-78
2021/01/21 03:04:50;;;;;;;19.15;2.28;;;13.20;35.50;;;;;;5013165;28;20052;-78
2021/01/21 03:07:22;;;;;;;22.38;1.52;;;13.20;35.80;;;;;;5013741;28;20029;-76
2021/01/21 03:09:49;;;;;;;23.52;2.40;;;13.20;36.10;;;;;;5012992;28;20034;-77
2021/01/21 03:12:27;;;;;;;17.75;2.15;;;13.10;36.00;;;;;;5013949;28;20049;-77
2021/01/21 03:14:56;;;;;;;16.50;1.65;;;13.10;35.90;;;;;;5011846;28;20037;-75
2021/01/21 03:17:24;;;;;;;21.10;2.25;;;13.10;36.40;;;;;;5011416;28;20041;-78
2021/01/21 03:19:52;;;;;;;12.98;2.03;;;13.00;36.40;;;;;;5012676;28;20026;-77
2021/01/21 03:22:20;;;;;;;16.98;1.75;;;12.90;36.20;;;;;;4994367;28;20049;-78
2021/01/21 03:24:47;;;;;;;16.92;1.38;;;12.90;36.30;;;;;;4994407;28;20042;-79
2021/01/21 03:27:14;;;;;;;20.80;2.50;;;12.80;36.90;;;;;;5012998;28;20045;-78
2021/01/21 03:29:41;;;;;;;22.73;1.60;;;12.80;36.90;;;;;;5013187;28;20518;-79
2021/01/21 03:32:08;;;;;;;18.52;1.35;;;12.80;36.70;;;;;;5012561;28;20041;-78
2021/01/21 03:34:35;;;;;;;20.02;1.67;;;12.80;36.70;;;;;;5012999;28;20025;-76
2021/01/21 03:37:02;;;;;;;19.40;2.08;;;12.70;36.60;;;;;;5012900;28;20033;-77
2021/01/21 03:39:29;;;;;;;18.65;1.45;;;12.70;36.90;;;;;;5013120;28;20034;-78
2021/01/21 03:41:55;;;;;;;9.00;1.20;;;12.70;36.90;;;;;;5003193;28;20034;-76
2021/01/21 03:44:22;;;;;;;20.30;1.48;;;12.70;37.10;;;;;;5008243;28;20030;-78
2021/01/21 03:46:49;;;;;;;17.23;2.30;;;12.60;37.30;;;;;;5013268;28;20026;-78
2021/01/21 03:49:16;;;;;;;20.30;2.33;;;12.70;37.20;;;;;;5013463;28;20497;-78
2021/01/21 03:51:43;;;;;;;22.73;2.65;;;12.70;37.20;;;;;;4994967;28;20517;-77
2021/01/21 03:54:10;;;;;;;14.05;2.30;;;12.60;37.30;;;;;;5011925;28;20037;-78
2021/01/21 03:56:37;;;;;;;27.70;3.35;;;12.70;37.30;;;;;;5012771;28;20650;-77
2021/01/21 03:59:07;;;;;;;14.35;1.50;;;12.90;37.00;;;;;;5012738;28;20026;-80
2021/01/21 04:01:34;;;;;;;24.55;2.03;;;12.80;36.80;;;;;;5002839;28;20037;-78
2021/01/21 04:04:01;;;;;;;11.30;1.90;;;12.70;37.60;;;;;;5011749;28;20347;-77
2021/01/21 04:06:28;;;;;;;19.35;2.33;;;12.90;36.70;;;;;;5012646;28;20432;-77
2021/01/21 04:08:55;;;;;;;18.92;1.90;;;13.00;37.00;;;;;;5012328;28;20030;-79
2021/01/21 04:11:22;;;;;;;18.20;2.28;;;12.90;36.80;;;;;;5012062;28;20525;-77
2021/01/21 04:13:49;;;;;;;19.48;1.80;;;12.80;37.40;;;;;;5012280;28;20030;-77
2021/01/21 04:16:16;;;;;;;24.10;2.10;;;12.70;37.20;;;;;;5011841;28;20030;-77
2021/01/21 04:18:43;;;;;;;23.10;1.83;;;12.60;37.70;;;;;;5012123;28;20029;-77
2021/01/21 04:21:10;;;;;;;15.82;1.63;;;12.50;37.70;;;;;;5011061;28;20686;-77
2021/01/21 04:23:37;;;;;;;24.88;2.10;;;12.40;38.10;;;;;;5008926;28;20331;-77
2021/01/21 04:26:04;;;;;;;19.27;1.98;;;12.30;38.30;;;;;;5011115;28;20056;-77
2021/01/21 04:28:31;;;;;;;12.30;2.00;;;12.10;38.90;;;;;;5011923;28;20030;-77
2021/01/21 04:30:58;;;;;;;19.70;2.55;;;12.20;38.40;;;;;;5011275;28;20040;-77
2021/01/21 04:33:25;;;;;;;16.17;1.77;;;12.10;38.50;;;;;;5011991;28;20029;-77
2021/01/21 04:35:52;;;;;;;18.50;3.13;;;12.00;38.40;;;;;;5011760;28;20057;-77
2021/01/21 04:38:19;;;;;;;23.27;1.60;;;12.00;38.00;;;;;;5011706;28;20033;-77
2021/01/21 04:40:47;;;;;;;16.52;1.70;;;12.50;37.40;;;;;;5012535;28;20025;-76
2021/01/21 04:43:14;;;;;;;25.75;2.65;;;12.30;38.00;;;;;;5011335;28;20037;-77
2021/01/21 04:45:41;;;;;;;19.35;3.05;;;12.30;37.60;;;;;;5011276;28;20053;-79
2021/01/21 04:48:09;;;;;;;22.27;3.33;;;12.40;37.00;;;;;;5010908;28;20042;-78
2021/01/21 04:50:36;;;;;;;17.33;1.58;;;12.50;37.10;;;;;;5011185;28;20497;-78
2021/01/21 04:53:06;;;;;;;18.92;1.83;;;12.60;37.20;;;;;;5011641;28;20053;-78
2021/01/21 04:55:46;;;;;;;10.70;1.23;;;12.50;36.90;;;;;;5015772;28;20025;-78
2021/01/21 04:58:19;;;;;;;21.50;1.52;;;12.50;36.60;;;;;;5017929;28;20374;-78
2021/01/21 05:00:48;;;;;;;12.38;1.60;;;12.40;36.90;;;;;;5018409;28;20033;-78
2021/01/21 05:03:16;;;;;;;14.98;1.40;;;12.40;36.90;;;;;;5017876;28;20394;-77
2021/01/21 05:05:43;;;;;;;12.73;1.40;;;12.40;36.80;;;;;;5017887;28;20382;-78
2021/01/21 05:08:11;;;;;;;15.30;1.85;;;12.30;37.30;;;;;;5017593;28;20056;-77
2021/01/21 05:10:38;;;;;;;16.10;1.38;;;12.00;37.70;;;;;;5017855;28;20033;-77
2021/01/21 05:13:06;;;;;;;19.83;1.60;;;12.00;37.20;;;;;;5018103;28;20034;-77
2021/01/21 05:15:32;;;;;;;31.67;2.28;;;12.40;36.00;;;;;;5017523;28;20026;-77
2021/01/21 05:18:00;;;;;;;11.25;1.42;;;12.50;36.00;;;;;;5017560;28;20033;-78
2021/01/21 05:20:27;;;;;;;14.95;1.80;;;12.50;35.40;;;;;;5018191;28;20037;-78
2021/01/21 05:22:58;;;;;;;19.27;1.60;;;12.70;34.50;;;;;;5014036;28;20041;-77
2021/01/21 05:25:28;;;;;;;;;;;12.90;33.70;;;;;;5020192;28;20094;-78
2021/01/21 05:28:06;;;;;;;28.02;1.80;;;13.00;33.20;;;;;;5015431;28;20297;-78
2021/01/21 05:30:33;;;;;;;14.77;1.90;;;12.60;34.80;;;;;;5016584;28;20030;-78
2021/01/21 05:33:02;;;;;;;27.70;1.70;;;12.60;34.30;;;;;;5019583;28;20041;-78
2021/01/21 05:35:29;;;;;;;19.08;2.97;;;12.50;33.90;;;;;;5018114;28;20018;-78
2021/01/21 05:37:58;;;;;;;10.00;1.08;;;12.40;34.10;;;;;;5016388;28;20026;-78
2021/01/21 05:40:29;;;;;;;17.95;2.97;;;12.30;34.60;;;;;;5016632;28;20032;-78
2021/01/21 05:42:58;;;;;;;16.38;1.42;;;12.20;34.70;;;;;;5017120;28;20671;-77
2021/01/21 05:45:25;;;;;;;14.90;1.90;;;12.00;35.00;;;;;;5019909;28;20045;-78
2021/01/21 05:48:02;;;;;;;10.32;1.50;;;11.90;34.80;;;;;;5017734;28;20048;-79
2021/01/21 05:50:30;;;;;;;15.80;1.85;;;11.90;34.20;;;;;;5018846;28;20041;-78
2021/01/21 05:53:07;;;;;;;21.42;1.98;;;11.90;34.40;;;;;;5018674;28;20049;-78
2021/01/21 05:55:37;;;;;;;19.60;1.98;;;11.90;34.00;;;;;;5017486;28;20030;-78
2021/01/21 05:58:06;;;;;;;11.63;2.08;;;11.90;34.00;;;;;;5012409;28;20489;-78
2021/01/21 06:00:33;;;;;;;16.90;1.60;;;11.90;33.90;;;;;;5015269;28;20049;-77
2021/01/21 06:03:01;;;;;;;24.30;2.75;;;11.90;34.10;;;;;;5023555;28;20373;-77
2021/01/21 06:05:28;;;;;;;16.08;1.40;;;12.40;33.70;;;;;;5022517;28;20493;-77
2021/01/21 06:07:55;;;;;;;18.17;1.17;;;12.40;33.70;;;;;;5014660;28;20041;-77
2021/01/21 06:10:22;;;;;;;15.98;1.55;;;12.30;34.10;;;;;;5014849;28;20034;-77
2021/01/21 06:12:53;;;;;;;13.38;1.25;;;12.00;34.30;;;;;;5014823;28;20038;-77
2021/01/21 06:15:21;;;;;;;18.83;1.60;;;11.80;34.90;;;;;;5011693;28;20044;-77
2021/01/21 06:17:50;;;;;;;20.08;1.80;;;11.70;34.90;;;;;;5025239;28;20033;-78
2021/01/21 06:20:18;;;;;;;13.48;1.38;;;11.60;35.10;;;;;;5005263;28;20030;-77
2021/01/21 06:22:47;;;;;;;16.90;1.90;;;11.60;34.80;;;;;;5014470;28;20030;-77
2021/01/21 06:25:21;;;;;;;11.50;1.77;;;11.60;34.70;;;;;;5014346;28;20026;-76
2021/01/21 06:27:49;;;;;;;15.23;1.55;;;11.70;34.40;;;;;;5014552;28;20026;-75
2021/01/21 06:30:19;;;;;;;23.42;1.83;;;11.80;34.20;;;;;;4995680;28;20041;-77
2021/01/21 06:33:07;;;;;;;17.90;3.13;;;11.70;34.50;;;;;;5014467;28;20042;-81
2021/01/21 06:35:47;;;;;;;22.73;2.22;;;11.70;34.60;;;;;;5013636;28;20077;-81
2021/01/21 06:38:19;;;;;;;14.15;1.38;;;11.70;34.30;;;;;;5013259;28;20046;-79
2021/01/21 06:40:53;;;;;;;;;;;11.70;34.60;;;;;;5014665;28;20022;-79
2021/01/21 06:43:25;;;;;;;14.15;1.67;;;11.80;34.50;;;;;;5014233;28;19909;-85
2021/01/21 06:45:57;;;;;;;14.85;1.15;;;11.80;34.80;;;;;;5013117;28;20394;-83
2021/01/21 06:48:25;;;;;;;12.27;1.15;;;11.70;35.00;;;;;;5014656;28;20493;-81
2021/01/21 06:50:53;;;;;;;10.48;1.67;;;11.50;35.20;;;;;;4995860;28;20394;-78
2021/01/21 06:53:20;;;;;;;15.77;1.50;;;11.50;35.10;;;;;;5013818;28;20045;-81
2021/01/21 06:55:50;;;;;;;12.18;1.27;;;11.50;35.30;;;;;;4995515;28;20386;-84
2021/01/21 06:58:45;;;;;;;21.27;2.67;;;11.40;35.00;;;;;;5014190;28;20394;-79
2021/01/21 07:01:34;;;;;;;18.10;1.42;;;11.50;34.90;;;;;;5013286;28;20045;-80
2021/01/21 07:04:21;;;;;;;32.38;3.60;;;11.50;34.00;;;;;;5012846;28;20048;-80
2021/01/21 07:06:54;;;;;;;16.15;1.45;;;11.60;34.10;;;;;;4995468;28;20448;-80
2021/01/21 07:09:24;;;;;;;14.02;1.50;;;11.50;34.40;;;;;;5013722;28;20037;-81
2021/01/21 07:11:59;;;;;;;11.50;1.42;;;11.50;34.60;;;;;;5013926;28;20462;-81
2021/01/21 07:14:34;;;;;;;17.40;1.55;;;11.40;35.00;;;;;;5013419;28;20041;-79
2021/01/21 07:17:06;;;;;;;12.55;1.30;;;11.40;35.80;;;;;;5012510;28;20034;-82
2021/01/21 07:19:36;;;;;;;;;;;11.40;36.00;;;;;;5012444;28;20041;-79
2021/01/21 07:22:20;;;;;;;14.07;1.42;;;11.30;36.40;;;;;;5013471;28;20274;-82
2021/01/21 07:24:57;;;;;;;13.48;1.30;;;11.30;36.40;;;;;;5013553;28;20482;-83
2021/01/21 07:27:27;;;;;;;22.90;1.35;;;11.20;36.40;;;;;;5012657;28;20042;-87
2021/01/21 07:30:29;;;;;;;10.23;1.88;;;11.20;36.70;;;;;;5013279;28;20033;-77
2021/01/21 07:33:13;;;;;;;;;;;11.10;36.60;;;;;;4916477;29;20055;-80
2021/01/21 07:35:40;;;;;;;21.52;1.30;;;11.30;36.80;;;;;;4916839;29;19926;-80
2021/01/21 07:38:07;;;;;;;14.45;1.10;;;11.20;37.30;;;;;;4914295;29;20036;-82
2021/01/21 07:40:47;;;;;;;16.50;1.58;;;11.20;37.30;;;;;;4913521;29;20044;-80
2021/01/21 07:43:14;;;;;;;8.88;1.20;;;11.20;37.80;;;;;;4914466;29;20161;-80
2021/01/21 07:45:44;;;;;;;13.75;2.00;;;11.30;37.20;;;;;;4913631;29;20048;-80
2021/01/21 07:48:24;;;;;;;15.57;1.30;;;11.20;36.50;;;;;;4913100;29;20043;-80
2021/01/21 07:50:54;;;;;;;17.80;1.15;;;11.40;34.40;;;;;;4914080;29;20039;-79
2021/01/21 07:53:28;;;;;;;22.70;2.35;;;11.50;34.00;;;;;;4913905;29;20060;-80
2021/01/21 07:56:03;;;;;;;12.80;1.02;;;11.40;33.30;;;;;;4913180;29;20043;-79
2021/01/21 07:58:35;;;;;;;14.25;1.17;;;11.20;33.60;;;;;;4912177;29;20044;-79
2021/01/21 08:01:19;;;;;;;12.65;1.00;;;11.00;34.10;;;;;;4897957;29;20397;-79
2021/01/21 08:03:46;;;;;;;13.73;1.05;;;11.00;34.00;;;;;;4913369;29;20048;-81
2021/01/21 08:06:23;;;;;;;9.50;0.82;;;11.00;33.00;;;;;;4927827;28;20046;-80
2021/01/21 08:08:52;;;;;;;8.25;1.38;;;11.00;33.00;;;;;;4992654;28;20041;-81
2021/01/21 08:11:24;;;;;;;11.50;1.00;;;11.00;32.40;;;;;;4992353;28;20034;-80
2021/01/21 08:13:59;;;;;;;15.43;1.13;;;10.90;32.80;;;;;;4992488;28;20042;-80
2021/01/21 08:16:27;;;;;;;8.55;1.33;;;11.00;32.30;;;;;;4990518;28;20375;-82
2021/01/21 08:19:01;;;;;;;5.82;0.90;;;11.00;32.20;;;;;;4992548;28;20034;-78
2021/01/21 08:21:28;;;;;;;7.97;0.77;;;11.10;31.40;;;;;;4992415;28;20039;-80
2021/01/21 08:24:03;;;;;;;11.45;1.40;;;11.20;31.00;;;;;;4991460;28;20046;-78
2021/01/21 08:26:32;;;;;;;15.48;2.08;;;11.10;31.10;;;;;;4992404;28;20029;-79
2021/01/21 08:28:59;;;;;;;8.07;1.20;;;11.00;31.30;;;;;;4991842;28;20475;-80
2021/01/21 08:31:35;;;;;;;6.22;0.70;;;11.00;31.30;;;;;;4992874;28;20463;-81
2021/01/21 08:34:04;;;;;;;6.40;0.77;;;10.90;31.50;;;;;;4999568;28;20042;-81
2021/01/21 08:36:31;;;;;;;5.60;0.57;;;10.90;31.20;;;;;;4993905;28;20027;-79
2021/01/21 08:38:59;;;;;;;6.38;1.45;;;10.90;30.90;;;;;;4990282;28;20053;-82
2021/01/21 08:41:26;;;;;;;8.23;0.95;;;11.00;30.60;;;;;;4992548;28;20046;-82
2021/01/21 08:43:59;;;;;;;8.18;0.73;;;11.20;30.50;;;;;;4992499;28;20498;-81
2021/01/21 08:46:27;;;;;;;5.60;0.60;;;11.10;30.30;;;;;;5011307;28;20057;-82
2021/01/21 08:48:55;;;;;;;6.78;1.27;;;11.00;30.20;;;;;;5011375;28;20034;-82
2021/01/21 08:51:29;;;;;;;7.70;1.40;;;11.00;30.30;;;;;;5011726;28;20022;-81
2021/01/21 08:54:17;;;;;;;6.95;1.10;;;10.90;30.80;;;;;;5012344;28;20037;-81
2021/01/21 08:57:04;;;;;;;8.95;0.73;;;10.90;30.20;;;;;;5011964;28;20041;-81
2021/01/21 08:59:42;;;;;;;9.52;0.88;;;11.00;30.40;;;;;;5011733;28;20030;-80
2021/01/21 09:02:09;;;;;;;5.60;0.55;;;11.00;30.00;;;;;;5011769;28;20143;-82
2021/01/21 09:04:38;;;;;;;2.25;0.68;;;11.00;30.00;;;;;;5012423;28;20026;-83
2021/01/21 09:07:08;;;;;;;10.55;0.70;;;10.90;30.00;;;;;;5012391;28;20030;-80
2021/01/21 09:09:37;;;;;;;11.43;1.38;;;10.90;30.10;;;;;;5011688;28;20026;-80
2021/01/21 09:12:14;;;;;;;8.18;1.35;;;10.90;30.10;;;;;;4993941;28;20049;-82
2021/01/21 09:14:43;;;;;;;9.88;1.02;;;10.80;30.30;;;;;;4993853;28;20041;-81
2021/01/21 09:17:16;;;;;;;12.88;1.98;;;10.90;30.70;;;;;;5011529;28;20041;-81
2021/01/21 09:19:45;;;;;;;18.52;1.70;;;10.80;30.90;;;;;;5011517;28;20048;-81
2021/01/21 09:22:15;;;;;;;4.88;0.70;;;10.80;30.90;;;;;;5011516;28;20022;-80
2021/01/21 09:25:03;;;;;;;7.50;0.63;;;10.70;31.00;;;;;;5011908;28;20026;-80
2021/01/21 09:27:31;;;;;;;6.72;0.70;;;10.70;31.00;;;;;;5011446;28;20034;-81
2021/01/21 09:30:07;;;;;;;13.88;0.80;;;10.70;31.40;;;;;;5011474;28;20030;-81
2021/01/21 09:32:36;;;;;;;9.60;0.85;;;10.50;31.20;;;;;;4993463;28;20050;-81
2021/01/21 09:35:17;;;;;;;7.43;0.68;;;10.50;30.90;;;;;;5011884;28;20032;-81
2021/01/21 09:37:45;;;;;;;7.27;0.90;;;10.60;30.80;;;;;;5010558;28;20613;-81
2021/01/21 09:40:32;;;;;;;8.63;0.63;;;10.60;30.80;;;;;;5011359;28;20263;-81
2021/01/21 09:43:01;;;;;;;5.95;0.80;;;10.60;30.90;;;;;;4996582;28;20395;-80
2021/01/21 09:45:29;;;;;;;11.35;0.82;;;10.70;30.90;;;;;;5014096;28;20046;-81
2021/01/21 09:47:57;;;;;;;7.60;0.90;;;10.60;30.80;;;;;;5015150;28;20025;-81
2021/01/21 09:50:27;;;;;;;12.23;1.38;;;10.50;31.30;;;;;;5014745;28;20030;-82
2021/01/21 09:52:54;;;;;;;9.27;0.73;;;10.40;31.20;;;;;;4996617;28;20046;-81
2021/01/21 09:55:21;;;;;;;6.60;0.68;;;10.30;31.40;;;;;;5015137;28;20030;-80
2021/01/21 09:57:48;;;;;;;6.80;1.38;;;10.30;30.90;;;;;;5014108;28;20042;-77
2021/01/21 10:00:15;;;;;;;8.57;0.70;;;10.40;31.40;;;;;;5014086;28;20064;-77
2021/01/21 10:02:42;;;;;;;9.57;2.17;;;10.30;31.40;;;;;;5014534;28;20034;-78
2021/01/21 10:05:10;;;;;;;5.75;0.98;;;10.30;30.90;;;;;;5015182;28;20030;-77
2021/01/21 10:07:37;;;;;;;10.27;1.00;;;10.30;31.40;;;;;;5015184;28;20034;-77
2021/01/21 10:10:05;;;;;;;9.32;1.00;;;10.30;31.80;;;;;;4993350;28;20038;-76
2021/01/21 10:12:33;;;;;;;9.15;1.40;;;10.30;32.50;;;;;;5014452;28;20038;-77
2021/01/21 10:15:01;;;;;;;8.55;1.20;;;10.30;34.90;;;;;;5014541;28;20038;-77
2021/01/21 10:17:30;;;;;;;18.65;1.42;;;10.30;34.90;;;;;;5014591;28;20378;-82
2021/01/21 10:19:57;;;;;;;11.82;1.10;;;10.20;35.10;;;;;;5014444;28;20482;-80
2021/01/21 10:22:24;;;;;;;11.80;2.17;;;10.20;35.80;;;;;;5014032;28;20386;-81
2021/01/21 10:24:51;;;;;;;12.32;1.63;;;10.00;35.00;;;;;;5013580;28;20042;-81
2021/01/21 10:27:20;;;;;;;11.77;1.35;;;9.90;36.20;;;;;;5014963;28;20018;-80
2021/01/21 10:29:50;;;;;;;9.60;1.00;;;9.70;35.90;;;;;;5014267;28;20026;-79
2021/01/21 10:32:17;;;;;;;16.05;2.58;;;9.70;34.60;;;;;;5013828;28;20042;-80
2021/01/21 10:34:44;;;;;;;5.82;0.95;;;9.70;33.10;;;;;;5014122;28;20026;-80
2021/01/21 10:37:11;;;;;;;11.82;1.02;;;9.80;32.70;;;;;;4995670;28;20402;-80
2021/01/21 10:39:38;;;;;;;5.45;1.15;;;9.80;32.90;;;;;;5013221;28;20053;-80
2021/01/21 10:42:05;;;;;;;10.27;0.95;;;9.90;32.80;;;;;;5013210;28;20044;-79
2021/01/21 10:44:32;;;;;;;8.85;1.33;;;10.20;33.30;;;;;;5004660;28;20045;-79
2021/01/21 10:46:59;;;;;;;13.95;1.30;;;10.50;35.10;;;;;;5013073;28;20046;-79
2021/01/21 10:49:27;;;;;;;16.88;1.58;;;10.40;34.60;;;;;;4995252;28;20038;-79
2021/01/21 10:51:56;;;;;;;9.30;1.20;;;10.10;35.10;;;;;;5013464;28;20041;-80
2021/01/21 10:54:23;;;;;;;14.13;1.30;;;9.90;35.60;;;;;;5013402;28;20034;-81
2021/01/21 10:56:56;;;;;;;7.35;0.98;;;10.00;34.80;;;;;;5014041;28;20053;-80
2021/01/21 10:59:24;;;;;;;8.45;1.00;;;10.10;35.50;;;;;;5013693;28;20037;-79
2021/01/21 11:01:51;;;;;;;10.88;1.20;;;10.40;33.70;;;;;;5013879;28;20026;-79
2021/01/21 11:04:18;;;;;;;9.38;1.00;;;10.20;33.80;;;;;;5013150;28;20041;-80
2021/01/21 11:06:45;;;;;;;6.90;1.10;;;10.30;33.70;;;;;;5013094;28;20057;-80
2021/01/21 11:09:15;;;;;;;16.92;1.35;;;10.30;33.70;;;;;;4995259;28;20366;-80
2021/01/21 11:11:42;;;;;;;11.75;1.05;;;10.30;33.50;;;;;;4995612;28;20034;-81
2021/01/21 11:14:09;;;;;;;12.25;1.77;;;10.20;33.80;;;;;;5012987;28;20030;-80
2021/01/21 11:16:36;;;;;;;15.40;2.97;;;10.20;33.50;;;;;;5013530;28;20022;-81
2021/01/21 11:19:02;;;;;;;5.63;0.90;;;10.20;33.60;;;;;;5013321;28;20034;-80
2021/01/21 11:21:29;;;;;;;13.68;1.10;;;10.10;32.90;;;;;;5013517;28;20348;-78
2021/01/21 11:23:56;;;;;;;13.20;1.40;;;10.10;33.20;;;;;;5013154;28;20370;-78
2021/01/21 11:26:23;;;;;;;7.85;1.23;;;10.10;33.10;;;;;;5012063;28;20502;-77
2021/01/21 11:28:53;;;;;;;9.13;1.40;;;10.30;33.20;;;;;;5013424;28;20029;-78
2021/01/21 11:31:20;;;;;;;13.07;1.20;;;10.10;33.30;;;;;;5012823;28;20026;-80
2021/01/21 11:33:47;;;;;;;7.93;1.92;;;10.10;32.90;;;;;;5013675;28;20037;-80
2021/01/21 11:36:17;;;;;;;7.18;0.80;;;10.20;32.90;;;;;;4995898;28;20045;-81
2021/01/21 11:38:44;;;;;;;14.20;1.90;;;10.20;32.80;;;;;;5021465;28;20378;-80
2021/01/21 11:41:15;;;;;;;9.18;1.30;;;10.20;32.60;;;;;;5013845;28;20378;-81
2021/01/21 11:43:42;;;;;;;8.60;1.52;;;10.30;32.10;;;;;;4994933;28;20038;-81
2021/01/21 11:46:09;;;;;;;10.93;0.93;;;10.20;32.20;;;;;;5012458;28;20048;-82
2021/01/21 11:48:35;;;;;;;10.23;0.80;;;10.30;32.10;;;;;;5013330;28;20025;-82
2021/01/21 11:51:03;;;;;;;12.73;0.80;;;10.20;32.20;;;;;;5011935;28;20049;-81
2021/01/21 11:53:31;;;;;;;9.77;1.13;;;10.30;31.60;;;;;;5012277;28;20049;-81
2021/01/21 11:55:58;;;;;;;10.75;0.73;;;10.20;31.80;;;;;;5012504;28;20022;-81
2021/01/21 11:58:25;;;;;;;9.93;0.93;;;10.20;31.50;;;;;;5012527;28;20026;-83
2021/01/21 12:00:52;;;;;;;5.03;0.93;;;10.10;31.40;;;;;;5011732;28;20036;-83
2021/01/21 12:03:18;;;;;;;11.25;1.00;;;10.10;32.10;;;;;;5008895;28;20042;-83
2021/01/21 12:05:45;;;;;;;9.10;2.15;;;10.10;32.90;;;;;;5012368;28;20379;-84
2021/01/21 12:08:12;;;;;;;10.80;2.20;;;10.00;33.30;;;;;;4995339;28;20042;-84
2021/01/21 12:10:39;;;;;;;16.48;1.83;;;10.00;33.90;;;;;;5021135;28;20049;-84
2021/01/21 12:13:09;;;;;;;7.25;1.00;;;9.90;34.40;;;;;;5015487;28;20045;-84
2021/01/21 12:15:36;;;;;;;12.63;0.80;;;9.90;34.40;;;;;;4994878;28;20394;-83
2021/01/21 12:18:03;;;;;;;9.18;1.05;;;9.90;34.50;;;;;;5012598;28;20474;-84
2021/01/21 12:20:30;;;;;;;7.90;1.00;;;9.80;35.10;;;;;;5011700;28;20034;-82
2021/01/21 12:22:57;;;;;;;16.30;1.83;;;9.70;35.40;;;;;;5012458;28;20045;-81
2021/01/21 12:25:23;;;;;;;16.00;2.15;;;9.70;34.90;;;;;;4993816;28;20371;-85
2021/01/21 12:27:51;;;;;;;9.77;1.02;;;9.60;34.90;;;;;;5003153;28;20030;-81
2021/01/21 12:30:18;;;;;;;7.57;0.85;;;9.60;35.70;;;;;;5012281;28;20049;-77
2021/01/21 12:32:45;;;;;;;13.25;1.23;;;9.60;35.30;;;;;;5012062;28;20470;-76
2021/01/21 12:35:15;;;;;;;16.02;1.58;;;9.50;35.40;;;;;;5012378;28;20478;-76
2021/01/21 12:37:42;;;;;;;6.32;1.17;;;9.50;35.00;;;;;;5011640;28;20026;-77
2021/01/21 12:40:10;;;;;;;22.00;1.55;;;9.60;34.40;;;;;;5012192;28;20030;-78
2021/01/21 12:42:37;;;;;;;6.68;1.15;;;9.80;34.10;;;;;;5011574;28;20034;-77
2021/01/21 12:45:05;;;;;;;7.93;0.93;;;9.70;34.20;;;;;;5011835;28;20040;-77
2021/01/21 12:47:32;;;;;;;9.40;1.20;;;9.50;34.70;;;;;;5011357;28;20030;-77
2021/01/21 12:49:59;;;;;;;8.13;0.90;;;9.30;34.80;;;;;;5011997;28;20040;-77
2021/01/21 12:52:26;;;;;;;6.88;1.13;;;9.30;34.30;;;;;;5011492;28;20034;-78
2021/01/21 12:54:57;;;;;;;11.77;1.05;;;9.20;34.70;;;;;;5012798;28;20040;-77